Latest Weather Observations for Norah Head

IDN60901

Issued at 11:21 pm EST Monday 24 April 2017 (issued every 10 minutes, with the page automatically refreshed every 10 minutes)

About weather observations | Map of Sydney area stations | Latest observations for Sydney area | Other Formats
Station Details ID: 061366 Name: NORAH HEAD AWS Lat: -33.28 Lon: 151.58 Height: 18.8 m
Data from the previous 72 hours. | See also: Recent months at Norah Head
Date/Time
EST
Temp
°C
App
Temp
°C
Dew
Point
°C
Rel
Hum
%
Delta-T
°C
Wind Press
QNH
hPa
Press
MSL
hPa
Rain since
9am
mm
Dir  Spd
km/h
Gust
km/h
Spd
kts
Gust
kts
24/11:00pm 19.0 17.4 16.6 86 1.4 NNE 20 24 11 13 1018.4 1018.3 0.0
24/10:30pm 19.2 18.3 17.7 91 0.9 NNE 19 22 10 12 1018.7 1018.6 0.0
24/10:00pm 19.6 18.8 18.1 91 0.9 N 19 22 10 12 1019.2 1019.1 0.0
24/09:30pm 19.5 20.2 18.0 91 0.9 NNW 11 15 6 8 1019.5 1019.4 0.0
24/09:00pm 19.6 19.1 17.9 90 1.0 N 17 19 9 10 1019.2 1019.1 0.0
24/08:30pm 19.6 19.1 17.7 89 1.2 N 17 20 9 11 1019.2 1019.1 0.0
24/08:00pm 19.6 19.4 17.7 89 1.2 N 15 17 8 9 1019.0 1018.9 0.0
24/07:30pm 20.0 20.7 18.0 88 1.2 N 11 17 6 9 1019.3 1019.2 0.0
24/07:00pm 20.3 20.0 18.2 88 1.3 NNE 17 19 9 10 1019.1 1019.0 0.0
24/06:30pm 19.9 19.4 17.9 88 1.2 NE 17 19 9 10 1018.8 1018.7 0.0
24/06:00pm 19.9 19.5 18.0 89 1.2 NE 17 19 9 10 1018.8 1018.7 0.0
24/05:30pm 19.9 19.4 17.7 87 1.4 ENE 17 20 9 11 1018.5 1018.4 0.0
24/05:00pm 20.4 20.6 17.6 84 1.7 NE 13 15 7 8 1018.6 1018.5 0.0
24/04:30pm 21.1 20.8 17.3 79 2.3 ENE 15 17 8 9 1018.4 1018.3 0.0
24/04:00pm 21.8 21.9 17.4 76 2.7 ENE 13 15 7 8 1018.4 1018.3 0.0
24/03:30pm 21.9 22.7 17.3 75 2.8 ENE 9 13 5 7 1018.5 1018.4 0.0
24/03:00pm 22.3 22.8 17.4 74 3.0 ENE 11 13 6 7 1018.7 1018.6 0.0
24/02:30pm 22.1 22.4 17.0 73 3.1 E 11 13 6 7 1018.8 1018.7 0.0
24/02:00pm 22.1 22.3 16.8 72 3.2 E 11 15 6 8 1019.1 1019.0 0.0
24/01:30pm 22.5 23.2 17.0 71 3.4 ESE 9 13 5 7 1019.4 1019.3 0.0
24/01:00pm 23.1 23.9 17.3 70 3.6 SSE 9 9 5 5 1019.9 1019.8 0.0
24/12:30pm 23.3 24.3 17.7 71 3.5 SE 9 9 5 5 1020.4 1020.3 0.0
24/12:00pm 22.8 24.0 17.3 71 3.4 SSE 7 11 4 6 1020.9 1020.8 0.0
24/11:30am 22.7 23.7 17.8 74 3.0 S 9 11 5 6 1021.3 1021.2 0.0
24/11:00am 23.1 24.6 18.8 77 2.7 S 9 11 5 6 1021.7 1021.6 0.0
24/10:30am 21.6 22.5 17.6 78 2.5 SSW 9 11 5 6 1022.1 1022.0 0.0
24/10:00am 21.6 23.4 18.2 81 2.1 S 6 9 3 5 1022.3 1022.2 0.0
24/09:30am 20.1 21.5 17.9 87 1.4 WSW 7 11 4 6 1022.4 1022.3 0.0
24/09:00am 19.0 20.0 17.8 93 0.7 W 9 13 5 7 1022.5 1022.4 0.2
24/08:30am 18.3 19.3 17.8 97 0.3 W 9 13 5 7 1022.7 1022.6 0.2
24/08:00am 17.8 18.4 17.8 100 0.0 W 11 17 6 9 1022.6 1022.5 0.2
24/07:30am 17.2 18.3 17.2 100 0.0 W 7 13 4 7 1022.3 1022.2 0.0
24/07:00am 16.5 16.6 16.5 100 0.0 W 11 15 6 8 1022.0 1021.9 0.0
24/06:30am 16.7 16.1 16.7 100 0.0 W 15 20 8 11 1021.7 1021.6 0.0
24/06:00am 17.0 16.9 17.0 100 0.0 WSW 13 17 7 9 1021.4 1021.3 0.0
24/05:30am 17.0 17.3 17.0 100 0.0 WSW 11 15 6 8 1021.4 1021.3 0.0
24/05:00am 16.9 17.2 16.9 100 0.0 WSW 11 15 6 8 1021.3 1021.2 0.0
24/04:30am 17.2 17.2 17.2 100 0.0 WSW 13 15 7 8 1021.2 1021.1 0.0
24/04:00am 17.0 16.9 17.0 100 0.0 WSW 13 15 7 8 1021.0 1020.9 0.0
24/03:30am 17.1 17.1 17.1 100 0.0 W 13 17 7 9 1020.9 1020.8 0.0
24/03:00am 17.2 17.1 17.0 99 0.1 W 13 17 7 9 1021.1 1021.0 0.0
24/02:30am 17.3 17.3 17.1 99 0.1 WSW 13 15 7 8 1021.3 1021.2 0.0
24/02:00am 17.5 17.9 17.2 98 0.2 W 11 15 6 8 1021.6 1021.5 0.0
24/01:30am 17.9 18.5 17.6 98 0.2 WSW 11 13 6 7 1021.8 1021.7 0.0
24/01:00am 18.0 18.5 17.5 97 0.3 WSW 11 13 6 7 1022.0 1021.9 0.0
24/12:30am 18.2 18.8 17.7 97 0.3 WSW 11 13 6 7 1022.3 1022.2 0.0
24/12:00am 18.6 19.6 17.8 95 0.5 WSW 9 11 5 6 1022.5 1022.4 0.0
 
Date/Time
EST
Temp
°C
App
Temp
°C
Dew
Point
°C
Rel
Hum
%
Delta-T
°C
Wind Press
QNH
hPa
Press
MSL
hPa
Rain since
9am
mm
Dir  Spd
km/h
Gust
km/h
Spd
kts
Gust
kts
23/11:30pm 18.6 18.9 17.8 95 0.5 WSW 13 13 7 7 1022.6 1022.5 0.0
23/11:00pm 18.4 19.2 17.2 93 0.7 W 9 17 5 9 1022.7 1022.6 0.0
23/10:30pm 18.8 20.1 17.5 92 0.8 W 7 11 4 6 1022.8 1022.7 0.0
23/10:00pm 19.3 21.6 17.6 90 1.0 NW 2 6 1 3 1023.0 1022.9 0.0
23/09:30pm 19.4 21.2 17.5 89 1.2 NNE 4 6 2 3 1023.0 1022.9 0.0
23/09:00pm 19.5 20.9 17.3 87 1.3 ENE 6 7 3 4 1023.0 1022.9 0.0
23/08:30pm 20.1 21.6 18.1 88 1.2 E 7 9 4 5 1022.8 1022.7 0.0
23/08:00pm 20.0 21.4 17.8 87 1.4 ESE 7 9 4 5 1022.6 1022.5 0.0
23/07:30pm 20.2 21.5 17.6 85 1.6 ESE 7 9 4 5 1022.4 1022.3 0.0
23/07:00pm 20.3 21.6 17.5 84 1.7 ESE 7 9 4 5 1022.2 1022.1 0.0
23/06:30pm 20.5 21.4 17.5 83 1.8 ESE 9 9 5 5 1021.9 1021.8 0.0
23/06:00pm 20.5 21.0 17.5 83 1.8 ESE 11 13 6 7 1021.5 1021.4 0.0
23/05:30pm 20.3 20.6 16.9 81 2.1 SE 11 13 6 7 1021.3 1021.2 0.0
23/05:00pm 20.9 21.1 16.7 77 2.5 ESE 11 13 6 7 1021.1 1021.0 0.0
23/04:30pm 21.1 21.2 16.5 75 2.8 ESE 11 13 6 7 1020.8 1020.7 0.0
23/04:00pm 21.5 21.6 16.5 73 3.0 ESE 11 13 6 7 1020.8 1020.7 0.0
23/03:30pm 21.9 22.5 16.8 73 3.1 ESE 9 9 5 5 1020.8 1020.7 0.0
23/03:00pm 22.1 22.7 16.8 72 3.2 E 9 11 5 6 1020.8 1020.7 0.0
23/02:30pm 22.3 23.2 16.6 70 3.5 E 7 9 4 5 1020.9 1020.8 0.0
23/02:00pm 22.3 22.9 15.9 67 3.8 E 7 9 4 5 1021.0 1020.9 0.0
23/01:30pm 22.7 23.3 15.8 65 4.2 ESE 7 9 4 5 1021.2 1021.1 0.0
23/01:00pm 22.7 23.7 16.3 67 3.9 ESE 6 6 3 3 1021.5 1021.4 0.0
23/12:30pm 22.6 23.8 16.9 70 3.5 SE 6 7 3 4 1021.8 1021.7 0.0
23/12:00pm 22.1 23.6 16.6 71 3.3 SE 4 7 2 4 1022.1 1022.0 0.0
23/11:30am 22.0 22.9 16.7 72 3.2 SSE 7 7 4 4 1022.7 1022.6 0.0
23/11:00am 21.6 23.0 16.3 72 3.2 SSE 4 6 2 3 1023.1 1023.0 0.0
23/10:30am 21.0 22.3 16.2 74 2.9 S 4 6 2 3 1023.5 1023.4 0.0
23/10:00am 21.8 23.9 18.0 79 2.4 ESE 4 6 2 3 1023.8 1023.7 0.0
23/09:30am 20.0 21.5 16.6 81 2.1 SSW 4 6 2 3 1023.8 1023.7 0.0
23/09:00am 19.6 21.1 16.6 83 1.8 SSW 4 6 2 3 1024.1 1024.0 0.0
23/08:30am 18.4 19.3 16.2 87 1.3 WNW 6 9 3 5 1023.9 1023.8 0.0
23/08:00am 17.5 18.2 16.0 91 0.9 W 7 13 4 7 1023.8 1023.7 0.0
23/07:30am 16.7 17.3 15.9 95 0.5 WNW 7 11 4 6 1023.4 1023.3 0.0
23/07:00am 16.3 17.5 16.0 98 0.2 NW 4 7 2 4 1023.3 1023.2 0.0
23/06:30am 16.1 17.3 15.8 98 0.2 W 4 6 2 3 1023.0 1022.9 0.0
23/06:00am 16.4 17.1 16.1 98 0.2 NW 7 9 4 5 1022.5 1022.4 0.0
23/05:30am 16.2 17.7 15.6 96 0.4 W 2 6 1 3 1022.6 1022.5 0.0
23/05:00am 16.1 17.2 15.5 96 0.3 NNW 4 6 2 3 1022.2 1022.1 0.0
23/04:30am 16.4 17.5 15.6 95 0.5 NW 4 6 2 3 1022.0 1021.9 0.0
23/04:00am 16.2 16.8 15.2 94 0.6 NW 6 7 3 4 1021.9 1021.8 0.0
23/03:30am 16.5 18.0 15.7 95 0.5 NW 2 4 1 2 1022.1 1022.0 0.0
23/03:00am 16.6 18.4 15.6 94 0.6 CALM 0 4 0 2 1022.1 1022.0 0.0
23/02:30am 16.6 18.0 15.5 93 0.6 WNW 2 4 1 2 1022.4 1022.3 0.0
23/02:00am 16.2 16.6 14.7 91 0.9 NW 6 11 3 6 1022.6 1022.5 0.0
23/01:30am 16.7 17.7 15.4 92 0.8 NW 4 6 2 3 1022.7 1022.6 0.0
23/01:00am 17.1 17.6 15.6 91 0.9 NW 7 9 4 5 1022.9 1022.8 0.0
23/12:30am 17.6 18.0 16.3 92 0.8 NNW 9 11 5 6 1023.2 1023.1 0.0
23/12:00am 18.1 18.3 16.8 92 0.8 N 11 13 6 7 1023.3 1023.2 0.0
 
Date/Time
EST
Temp
°C
App
Temp
°C
Dew
Point
°C
Rel
Hum
%
Delta-T
°C
Wind Press
QNH
hPa
Press
MSL
hPa
Rain since
9am
mm
Dir  Spd
km/h
Gust
km/h
Spd
kts
Gust
kts
22/11:30pm 18.3 18.5 16.8 91 0.9 N 11 13 6 7 1023.4 1023.3 0.0
22/11:00pm 18.1 18.1 16.3 89 1.1 NNW 11 15 6 8 1023.5 1023.4 0.0
22/10:30pm 18.1 18.7 15.9 87 1.3 NW 7 11 4 6 1023.6 1023.5 0.0
22/10:00pm 18.6 19.0 16.2 86 1.4 NNW 9 11 5 6 1023.6 1023.5 0.0
22/09:30pm 19.1 19.1 16.3 84 1.7 NNW 11 15 6 8 1023.7 1023.6 0.0
22/09:00pm 19.3 18.4 16.9 86 1.4 N 17 19 9 10 1023.5 1023.4 0.0
22/08:30pm 19.2 18.5 16.4 84 1.7 N 15 17 8 9 1023.7 1023.6 0.0
22/08:00pm 19.4 18.9 16.8 85 1.6 N 15 17 8 9 1023.5 1023.4 0.0
22/07:30pm 19.4 19.6 16.8 85 1.6 N 11 13 6 7 1023.3 1023.2 0.0
22/07:00pm 19.9 20.5 16.7 82 1.9 N 9 11 5 6 1023.2 1023.1 0.0
22/06:30pm 20.0 19.3 16.4 80 2.2 N 15 17 8 9 1023.1 1023.0 0.0
22/06:00pm 20.1 19.7 17.1 83 1.8 N 15 17 8 9 1022.9 1022.8 0.0
22/05:30pm 20.6 19.5 17.4 82 2.0 NNE 19 20 10 11 1022.8 1022.7 0.0
22/05:00pm 20.7 19.8 17.7 83 1.8 NNE 19 20 10 11 1022.7 1022.6 0.0
22/04:30pm 21.1 20.9 17.5 80 2.2 NNE 15 17 8 9 1022.6 1022.5 0.0
22/04:00pm 21.3 20.5 17.1 77 2.6 NNE 17 20 9 11 1022.6 1022.5 0.0
22/03:30pm 21.9 21.5 17.1 74 2.9 NE 15 20 8 11 1022.5 1022.4 0.0
22/03:00pm 22.3 22.2 17.0 72 3.2 NE 13 15 7 8 1022.5 1022.4 0.0
22/02:30pm 23.1 22.9 17.6 71 3.4 NE 15 17 8 9 1022.6 1022.5 0.0
22/02:00pm 23.0 22.5 17.0 69 3.7 NE 15 17 8 9 1022.8 1022.7 0.0
22/01:30pm 22.7 22.0 17.4 72 3.3 NE 17 20 9 11 1022.8 1022.7 0.0
22/01:00pm 21.6 20.5 16.3 72 3.2 NE 17 20 9 11 1023.4 1023.3 0.0
22/12:30pm 22.9 22.4 16.9 69 3.7 NE 15 17 8 9 1023.8 1023.7 0.0
22/12:00pm 22.2 22.1 16.9 72 3.2 NE 13 17 7 9 1024.2 1024.1 0.0
22/11:30am 22.0 20.9 17.2 74 2.9 NNE 19 20 10 11 1024.6 1024.5 0.0
22/11:00am 22.1 21.3 17.0 73 3.1 NNE 17 20 9 11 1024.8 1024.7 0.0
22/10:30am 22.3 21.6 16.3 69 3.6 N 15 22 8 12 1025.1 1025.0 0.0
22/10:00am 20.5 20.4 16.1 76 2.6 N 11 15 6 8 1025.5 1025.4 0.0
22/09:30am 20.6 21.6 16.4 77 2.5 N 6 7 3 4 1025.6 1025.5 0.0
22/09:00am 19.7 21.8 16.3 81 2.0 CALM 0 4 0 2 1025.5 1025.4 0.0
22/08:30am 18.9 19.6 16.0 83 1.7 N 7 11 4 6 1025.9 1025.8 0.0
22/08:00am 18.9 20.0 15.6 81 1.9 NNW 4 6 2 3 1025.6 1025.5 0.0
22/07:30am 19.0 19.2 15.7 81 2.0 N 9 11 5 6 1025.3 1025.2 0.0
22/07:00am 18.8 17.7 15.3 80 2.0 N 15 19 8 10 1025.1 1025.0 0.0
22/06:30am 18.9 17.4 15.4 80 2.1 N 17 19 9 10 1024.9 1024.8 0.0
22/06:00am 19.0 17.6 15.5 80 2.1 N 17 19 9 10 1024.6 1024.5 0.0
22/05:30am 19.1 17.8 15.8 81 2.0 N 17 19 9 10 1024.4 1024.3 0.0
22/05:00am 19.4 18.1 15.9 80 2.1 N 17 19 9 10 1024.4 1024.3 0.0
22/04:30am 19.6 18.4 16.1 80 2.1 N 17 20 9 11 1024.1 1024.0 0.0
22/04:00am 20.1 17.6 16.1 78 2.4 NNE 24 28 13 15 1023.9 1023.8 0.0
22/03:30am 20.3 17.1 16.3 78 2.4 NNE 28 35 15 19 1023.9 1023.8 0.0
22/03:00am 19.8 17.4 16.4 81 2.0 NNE 24 28 13 15 1024.1 1024.0 0.0
22/02:30am 19.3 17.6 15.8 80 2.1 N 19 22 10 12 1024.3 1024.2 0.0
22/02:00am 19.4 17.4 15.5 78 2.3 N 20 24 11 13 1024.5 1024.4 0.0
22/01:30am 19.6 17.4 15.9 79 2.2 N 22 24 12 13 1024.7 1024.6 0.0
22/01:00am 19.5 17.7 16.0 80 2.1 N 20 24 11 13 1024.8 1024.7 0.0
22/12:30am 19.6 17.8 15.9 79 2.2 N 20 22 11 12 1025.2 1025.1 0.0
22/12:00am 19.7 16.9 16.3 81 2.0 N 26 30 14 16 1025.1 1025.0 0.0
 
Date/Time
EST
Temp
°C
App
Temp
°C
Dew
Point
°C
Rel
Hum
%
Delta-T
°C
Wind Press
QNH
hPa
Press
MSL
hPa
Rain since
9am
mm
Dir  Spd
km/h
Gust
km/h
Spd
kts
Gust
kts
21/11:30pm 19.7 17.0 16.7 83 1.8 NNE 26 32 14 17 1025.1 1025.0 0.0

Latest Capital City Observations: Canberra | Sydney | Melbourne | Brisbane | Adelaide | Perth | Hobart | Darwin

Other Formats:

Comma delimited format used in spreadsheet applications
http://www.bom.gov.au/fwo/IDN60901/IDN60901.95770.axf

JavaScript Object Notation format (JSON) in row-major order
http://www.bom.gov.au/fwo/IDN60901/IDN60901.95770.json